createdAt,value
2022-10-30T00:00:51.518Z,99.90
2022-10-30T00:03:20.140Z,99.90
2022-10-30T00:05:51.776Z,99.90
2022-10-30T00:08:20.677Z,99.90
2022-10-30T00:10:51.436Z,99.90
2022-10-30T00:13:20.552Z,99.90
2022-10-30T00:15:50.712Z,99.90
2022-10-30T00:18:19.445Z,99.90
2022-10-30T00:20:49.413Z,99.90
2022-10-30T00:23:17.884Z,99.90
2022-10-30T00:25:46.037Z,99.90
2022-10-30T00:28:14.257Z,99.90
2022-10-30T00:30:42.832Z,99.90
2022-10-30T00:33:11.196Z,99.90
2022-10-30T00:35:39.358Z,99.90
2022-10-30T00:38:08.974Z,99.90
2022-10-30T00:40:37.521Z,99.90
2022-10-30T00:43:05.889Z,99.90
2022-10-30T00:45:34.302Z,99.90
2022-10-30T00:48:05.910Z,99.90
2022-10-30T00:50:36.404Z,99.90
2022-10-30T00:53:10.077Z,99.90
2022-10-30T00:55:41.264Z,99.90
2022-10-30T00:58:12.317Z,99.90
2022-10-30T01:00:43.465Z,99.90
2022-10-30T01:03:12.121Z,99.90
2022-10-30T01:05:41.593Z,99.90
2022-10-30T01:08:11.717Z,99.90
2022-10-30T01:10:40.545Z,99.90
2022-10-30T01:13:09.000Z,99.90
2022-10-30T01:15:41.808Z,99.90
2022-10-30T01:18:32.946Z,99.90
2022-10-30T01:21:20.932Z,99.90
2022-10-30T01:24:07.350Z,99.90
2022-10-30T01:26:45.024Z,99.90
2022-10-30T01:29:26.414Z,99.90
2022-10-30T01:32:09.671Z,99.90
2022-10-30T01:34:46.156Z,99.90
2022-10-30T01:37:20.946Z,99.90
2022-10-30T01:39:50.573Z,99.90
2022-10-30T01:42:44.918Z,99.90
2022-10-30T01:45:18.193Z,99.90
2022-10-30T01:48:09.529Z,99.90
2022-10-30T01:50:46.577Z,99.90
2022-10-30T01:53:24.952Z,99.90
2022-10-30T01:56:03.065Z,99.90
2022-10-30T01:58:38.166Z,99.90
2022-10-30T02:01:06.911Z,99.90
2022-10-30T02:03:35.184Z,99.90
2022-10-30T02:06:03.808Z,99.90
2022-10-30T02:08:32.133Z,99.90
2022-10-30T02:11:01.834Z,99.90
2022-10-30T02:13:30.199Z,99.90
2022-10-30T02:16:00.021Z,99.90
2022-10-30T02:18:30.118Z,99.90
2022-10-30T02:21:00.093Z,99.90
2022-10-30T02:23:28.348Z,99.90
2022-10-30T02:25:57.149Z,99.90
2022-10-30T02:28:26.284Z,99.90
2022-10-30T02:30:54.638Z,99.90
2022-10-30T02:33:24.381Z,99.90
2022-10-30T02:35:53.186Z,99.90
2022-10-30T02:38:23.346Z,99.90
2022-10-30T02:40:51.912Z,99.90
2022-10-30T02:43:20.422Z,99.90
2022-10-30T02:45:52.725Z,99.90
2022-10-30T02:48:20.897Z,99.90
2022-10-30T02:50:49.173Z,99.90
2022-10-30T02:53:17.401Z,99.90
2022-10-30T02:55:47.014Z,99.90
2022-10-30T02:58:15.213Z,99.90
2022-10-30T03:00:43.472Z,99.90
2022-10-30T03:03:11.879Z,99.90
2022-10-30T03:05:40.138Z,99.90
2022-10-30T03:08:08.298Z,99.90
2022-10-30T03:10:36.513Z,99.90
2022-10-30T03:13:06.203Z,99.90
2022-10-30T03:15:34.354Z,99.90
2022-10-30T03:18:02.569Z,99.90
2022-10-30T03:20:30.873Z,99.90
2022-10-30T03:22:59.095Z,99.90
2022-10-30T03:25:27.325Z,99.90
2022-10-30T03:27:55.915Z,99.90
2022-10-30T03:30:25.859Z,99.90
2022-10-30T03:32:54.039Z,99.90
2022-10-30T03:35:22.265Z,99.90
2022-10-30T03:37:51.376Z,99.90
2022-10-30T03:40:19.620Z,99.90
2022-10-30T03:42:47.808Z,99.90
2022-10-30T03:45:16.147Z,99.90
2022-10-30T03:47:45.756Z,99.90
2022-10-30T03:50:14.333Z,99.90
2022-10-30T03:52:42.651Z,99.90
2022-10-30T03:55:11.158Z,99.90
2022-10-30T03:57:39.474Z,99.90
2022-10-30T04:00:09.093Z,99.90
2022-10-30T04:02:37.261Z,99.90
2022-10-30T04:05:07.525Z,99.90
2022-10-30T04:07:35.879Z,99.90
2022-10-30T04:10:04.346Z,99.90
2022-10-30T04:12:32.751Z,99.90
2022-10-30T04:15:01.029Z,99.90
2022-10-30T04:17:29.263Z,99.90
2022-10-30T04:19:57.729Z,99.90
2022-10-30T04:22:27.793Z,99.90
2022-10-30T04:24:56.033Z,99.90
2022-10-30T04:27:24.645Z,99.90
2022-10-30T04:29:53.449Z,99.90
2022-10-30T04:32:22.050Z,99.90
2022-10-30T04:34:53.330Z,99.90
2022-10-30T04:37:21.540Z,99.90
2022-10-30T04:39:51.832Z,99.90
2022-10-30T04:42:20.580Z,99.90
2022-10-30T04:44:48.738Z,99.90
2022-10-30T04:47:17.473Z,99.90
2022-10-30T04:49:45.703Z,99.90
2022-10-30T04:52:13.966Z,99.90
2022-10-30T04:54:42.136Z,99.90
2022-10-30T04:57:11.776Z,99.90
2022-10-30T04:59:39.966Z,99.90
2022-10-30T05:02:08.425Z,99.90
2022-10-30T05:04:36.684Z,99.90
2022-10-30T05:07:04.956Z,99.90
2022-10-30T05:09:33.592Z,99.90
2022-10-30T05:12:01.904Z,99.90
2022-10-30T05:14:32.776Z,99.90
2022-10-30T05:17:01.640Z,99.90
2022-10-30T05:19:29.823Z,99.90
2022-10-30T05:21:58.002Z,99.90
2022-10-30T05:24:26.233Z,99.90
2022-10-30T05:26:54.438Z,99.90
2022-10-30T05:29:22.637Z,99.90
2022-10-30T05:31:52.217Z,99.90
2022-10-30T05:34:20.557Z,99.90
2022-10-30T05:36:48.879Z,99.90
2022-10-30T05:39:17.095Z,99.90
2022-10-30T05:41:45.301Z,99.90
2022-10-30T05:44:13.555Z,99.90
2022-10-30T05:46:42.643Z,99.90
2022-10-30T05:49:12.337Z,99.90
2022-10-30T05:51:40.744Z,99.90
2022-10-30T05:54:09.535Z,99.90
2022-10-30T05:56:37.912Z,99.90
2022-10-30T05:59:06.261Z,99.90
2022-10-30T06:01:34.551Z,99.90
2022-10-30T06:04:02.842Z,99.90
2022-10-30T06:06:33.711Z,99.90
2022-10-30T06:09:02.501Z,99.90
2022-10-30T06:11:30.701Z,99.90
2022-10-30T06:13:58.921Z,99.90
2022-10-30T06:16:27.096Z,99.90
2022-10-30T06:18:55.290Z,99.90
2022-10-30T06:21:23.456Z,99.90
2022-10-30T06:23:53.034Z,99.90
2022-10-30T06:26:21.181Z,99.90
2022-10-30T06:28:49.348Z,99.90
2022-10-30T06:31:17.524Z,99.90
2022-10-30T06:33:45.839Z,99.90
2022-10-30T06:36:14.025Z,99.90
2022-10-30T06:38:42.222Z,99.90
2022-10-30T06:41:11.819Z,99.90
2022-10-30T06:43:40.005Z,99.90
2022-10-30T06:48:41.460Z,99.90
2022-10-30T06:51:09.693Z,99.90
2022-10-30T06:53:37.832Z,99.90
2022-10-30T06:56:06.456Z,99.90
2022-10-30T06:58:39.200Z,99.90
2022-10-30T07:01:08.192Z,99.90
2022-10-30T07:03:36.608Z,99.90
2022-10-30T07:06:04.936Z,99.90
2022-10-30T07:08:33.446Z,99.90
2022-10-30T07:11:01.577Z,99.90
2022-10-30T07:13:29.785Z,99.90
2022-10-30T07:15:59.899Z,99.90
2022-10-30T07:18:28.119Z,99.90
2022-10-30T07:20:57.124Z,99.90
2022-10-30T07:23:25.652Z,99.90
2022-10-30T07:25:53.781Z,99.90
2022-10-30T07:28:22.016Z,99.90
2022-10-30T07:30:50.182Z,99.90
2022-10-30T07:33:19.760Z,99.90
2022-10-30T07:35:47.967Z,99.90
2022-10-30T07:38:17.691Z,99.90
2022-10-30T07:40:45.901Z,99.90
2022-10-30T07:43:16.089Z,99.90
2022-10-30T07:45:46.616Z,99.90
2022-10-30T07:48:14.787Z,99.90
2022-10-30T07:50:44.785Z,99.90
2022-10-30T07:53:12.943Z,99.90
2022-10-30T07:55:41.107Z,99.90
2022-10-30T07:58:09.329Z,99.90
2022-10-30T08:00:37.628Z,99.90
2022-10-30T08:03:06.678Z,99.90
2022-10-30T08:05:35.292Z,99.90
2022-10-30T08:08:05.057Z,99.90
2022-10-30T08:10:33.224Z,99.90
2022-10-30T08:13:01.410Z,99.90
2022-10-30T08:15:29.804Z,99.90
2022-10-30T08:17:58.186Z,99.90
2022-10-30T08:20:27.110Z,99.90
2022-10-30T08:22:56.931Z,99.90
2022-10-30T08:25:28.747Z,99.90
2022-10-30T08:27:58.440Z,99.90
2022-10-30T08:30:28.437Z,99.90
2022-10-30T08:32:59.058Z,99.90
2022-10-30T08:35:27.798Z,99.90
2022-10-30T08:37:56.974Z,99.90
2022-10-30T08:40:28.967Z,99.90
2022-10-30T08:42:58.341Z,99.90
2022-10-30T08:45:30.904Z,99.90
2022-10-30T08:48:00.477Z,99.90
2022-10-30T08:50:29.401Z,99.90
2022-10-30T08:52:57.936Z,99.90
2022-10-30T08:55:27.679Z,99.90
2022-10-30T08:57:55.837Z,99.90
2022-10-30T09:00:24.060Z,99.90
2022-10-30T09:02:52.578Z,99.90
2022-10-30T09:05:20.997Z,99.90
2022-10-30T09:07:49.292Z,99.90
2022-10-30T09:10:17.852Z,99.90
2022-10-30T09:12:47.520Z,99.90
2022-10-30T09:15:15.774Z,99.90
2022-10-30T09:17:43.969Z,99.90
2022-10-30T09:20:12.780Z,99.90
2022-10-30T09:22:43.291Z,99.90
2022-10-30T09:25:11.474Z,99.90
2022-10-30T09:27:40.015Z,99.90
2022-10-30T09:30:10.843Z,99.90
2022-10-30T09:32:38.976Z,99.90
2022-10-30T09:35:07.938Z,98.50
2022-10-30T09:37:36.801Z,98.50
2022-10-30T09:40:05.681Z,96.90
2022-10-30T09:42:44.034Z,98.00
2022-10-30T09:45:54.107Z,94.80
2022-10-30T09:48:56.307Z,92.10
2022-10-30T09:51:45.116Z,90.70
2022-10-30T09:54:19.515Z,90.30
2022-10-30T09:56:53.553Z,91.60
2022-10-30T09:59:37.827Z,91.90
2022-10-30T10:02:22.455Z,92.60
2022-10-30T10:04:57.735Z,94.00
2022-10-30T10:07:31.184Z,95.30
2022-10-30T10:10:09.480Z,96.30
2022-10-30T10:12:41.218Z,97.00
2022-10-30T10:15:17.742Z,97.80
2022-10-30T10:17:47.791Z,97.90
2022-10-30T10:20:28.314Z,97.50
2022-10-30T10:22:59.654Z,96.80
2022-10-30T10:25:30.859Z,95.80
2022-10-30T10:28:10.176Z,95.50
2022-10-30T10:30:49.474Z,94.60
2022-10-30T10:33:35.047Z,94.70
2022-10-30T10:36:11.277Z,92.90
2022-10-30T10:39:05.839Z,92.50
2022-10-30T10:41:53.657Z,91.40
2022-10-30T10:44:31.995Z,91.40
2022-10-30T10:47:16.123Z,90.60
2022-10-30T10:50:03.256Z,89.90
2022-10-30T10:52:39.716Z,89.10
2022-10-30T10:55:15.672Z,89.20
2022-10-30T10:57:44.882Z,86.30
2022-10-30T11:00:18.139Z,87.80
2022-10-30T11:02:53.068Z,88.20
2022-10-30T11:05:28.859Z,88.90
2022-10-30T11:08:03.328Z,88.40
2022-10-30T11:10:31.524Z,88.20
2022-10-30T11:13:01.356Z,87.50
2022-10-30T11:15:37.964Z,89.50
2022-10-30T11:18:09.097Z,91.40
2022-10-30T11:20:43.049Z,92.10
2022-10-30T11:36:38.396Z,93.10
2022-10-30T11:39:11.977Z,99.20
2022-10-30T11:41:41.579Z,99.90
2022-10-30T11:44:11.560Z,99.90
2022-10-30T11:46:40.572Z,99.90
2022-10-30T11:49:24.207Z,99.90
2022-10-30T11:51:55.293Z,99.90
2022-10-30T11:54:24.952Z,99.90
2022-10-30T11:56:54.774Z,99.90
2022-10-30T11:59:25.551Z,99.90
2022-10-30T12:02:03.980Z,99.90
2022-10-30T12:04:34.278Z,99.90
2022-10-30T12:07:25.706Z,99.90
2022-10-30T12:09:55.173Z,99.90
2022-10-30T12:12:27.911Z,99.90
2022-10-30T12:14:57.280Z,99.90
2022-10-30T12:17:25.793Z,99.90
2022-10-30T12:19:57.604Z,99.90
2022-10-30T12:22:32.366Z,99.90
2022-10-30T12:25:04.585Z,99.90
2022-10-30T12:27:39.197Z,99.90
2022-10-30T12:30:16.152Z,99.90
2022-10-30T12:32:51.027Z,99.90
2022-10-30T12:35:37.232Z,99.90
2022-10-30T12:38:20.444Z,99.90
2022-10-30T12:41:02.142Z,99.90
2022-10-30T12:43:36.081Z,99.90
2022-10-30T12:46:17.666Z,99.90
2022-10-30T12:48:50.605Z,99.90
2022-10-30T12:51:25.670Z,99.90
2022-10-30T12:54:11.478Z,99.90
2022-10-30T12:56:44.489Z,99.90
2022-10-30T12:59:32.596Z,99.90
2022-10-30T13:02:12.863Z,99.90
2022-10-30T13:04:45.858Z,99.90
2022-10-30T13:07:21.814Z,99.90
2022-10-30T13:10:03.661Z,99.90
2022-10-30T13:12:36.389Z,99.90
2022-10-30T13:15:07.803Z,99.90
2022-10-30T13:17:36.421Z,99.90
2022-10-30T13:20:13.799Z,99.90
2022-10-30T13:22:50.457Z,99.90
2022-10-30T13:25:25.809Z,99.90
2022-10-30T13:28:00.854Z,99.90
2022-10-30T13:30:34.366Z,99.90
2022-10-30T13:33:13.586Z,99.90
2022-10-30T13:35:49.577Z,99.90
2022-10-30T13:38:36.181Z,99.90
2022-10-30T13:41:15.181Z,99.90
2022-10-30T13:43:53.614Z,99.90
2022-10-30T13:46:40.578Z,99.90
2022-10-30T13:49:27.739Z,99.90
2022-10-30T13:52:02.204Z,99.90
2022-10-30T13:54:35.220Z,99.90
2022-10-30T13:57:15.069Z,99.90
2022-10-30T13:59:57.590Z,99.90
2022-10-30T14:02:58.762Z,99.90
2022-10-30T14:05:36.371Z,99.90
2022-10-30T14:08:13.017Z,99.90
2022-10-30T14:10:57.520Z,99.90
2022-10-30T14:13:49.156Z,99.90
2022-10-30T14:16:45.340Z,99.90
2022-10-30T14:19:15.070Z,99.90
2022-10-30T14:21:53.827Z,99.90
2022-10-30T14:27:11.412Z,99.90
2022-10-30T14:29:48.422Z,99.90
2022-10-30T14:32:40.348Z,99.90
2022-10-30T14:35:38.976Z,99.90
2022-10-30T14:38:29.437Z,99.90
2022-10-30T14:41:33.624Z,99.90
2022-10-30T14:44:45.112Z,99.90
2022-10-30T14:47:42.602Z,99.90
2022-10-30T14:50:20.069Z,99.90
2022-10-30T14:53:03.505Z,99.90
2022-10-30T14:55:37.563Z,99.90
2022-10-30T14:58:26.052Z,99.90
2022-10-30T15:01:24.154Z,99.90
2022-10-30T15:04:06.766Z,99.90
2022-10-30T15:06:43.151Z,99.90
2022-10-30T15:09:25.128Z,99.90
2022-10-30T15:12:08.150Z,99.90
2022-10-30T15:14:53.010Z,99.90
2022-10-30T15:17:28.114Z,99.90
2022-10-30T15:20:00.466Z,99.90
2022-10-30T15:22:31.777Z,99.90
2022-10-30T15:25:00.540Z,99.90
2022-10-30T15:27:29.717Z,99.90
2022-10-30T15:30:03.058Z,99.90
2022-10-30T15:32:31.377Z,99.90
2022-10-30T15:35:03.146Z,99.90
2022-10-30T15:37:31.833Z,99.90
2022-10-30T15:40:18.299Z,99.90
2022-10-30T15:42:48.913Z,99.90
2022-10-30T15:45:22.516Z,99.90
2022-10-30T15:48:02.928Z,99.90
2022-10-30T15:50:34.411Z,99.90
2022-10-30T15:53:03.188Z,99.90
2022-10-30T15:55:35.008Z,99.90
2022-10-30T15:58:07.281Z,99.90
2022-10-30T16:00:38.073Z,99.90
2022-10-30T16:03:16.930Z,99.90
2022-10-30T16:05:48.669Z,99.90
2022-10-30T16:08:22.414Z,99.90
2022-10-30T16:10:53.976Z,99.90
2022-10-30T16:13:25.120Z,99.90
2022-10-30T16:15:53.514Z,99.90
2022-10-30T16:18:24.185Z,99.90
2022-10-30T16:20:55.909Z,99.90
2022-10-30T16:23:25.080Z,99.90
2022-10-30T16:25:57.645Z,99.90
2022-10-30T16:28:29.577Z,99.90
2022-10-30T16:31:01.544Z,99.90
2022-10-30T16:33:32.756Z,99.90
2022-10-30T16:36:06.189Z,99.90
2022-10-30T16:38:37.998Z,99.90
2022-10-30T16:41:07.913Z,99.90
2022-10-30T16:43:37.181Z,99.90
2022-10-30T16:46:36.918Z,99.90
2022-10-30T16:49:10.819Z,99.90
2022-10-30T16:51:43.947Z,99.90
2022-10-30T16:54:23.476Z,99.90
2022-10-30T16:57:00.999Z,99.90
2022-10-30T16:59:39.185Z,99.90
2022-10-30T17:02:17.462Z,99.90
2022-10-30T17:04:51.268Z,99.90
2022-10-30T17:07:26.588Z,99.90
2022-10-30T17:09:57.071Z,99.90
2022-10-30T17:12:28.006Z,99.90
2022-10-30T17:15:21.009Z,99.90
2022-10-30T17:18:11.712Z,99.90
2022-10-30T17:20:41.888Z,99.90
2022-10-30T17:26:10.377Z,99.90
2022-10-30T17:28:40.223Z,99.90
2022-10-30T17:31:24.466Z,99.90
2022-10-30T17:34:12.702Z,99.90
2022-10-30T17:36:42.193Z,99.90
2022-10-30T17:39:12.683Z,99.90
2022-10-30T17:41:42.131Z,99.90
2022-10-30T17:44:19.641Z,99.90
2022-10-30T17:46:48.468Z,99.90
2022-10-30T17:49:26.605Z,99.90
2022-10-30T17:51:55.765Z,99.90
2022-10-30T17:54:26.025Z,99.90
2022-10-30T17:56:54.312Z,99.90
2022-10-30T17:59:22.558Z,99.90
2022-10-30T18:01:51.258Z,99.90
2022-10-30T18:04:21.829Z,99.90
2022-10-30T18:06:51.111Z,99.90
2022-10-30T18:09:19.504Z,99.90
2022-10-30T18:11:49.983Z,99.90
2022-10-30T18:14:18.478Z,99.90
2022-10-30T18:16:55.411Z,99.90
2022-10-30T18:19:25.473Z,99.90
2022-10-30T18:21:55.484Z,99.90
2022-10-30T18:24:24.471Z,99.90
2022-10-30T18:26:55.546Z,99.90
2022-10-30T18:29:23.746Z,99.90
2022-10-30T18:31:52.594Z,99.90
2022-10-30T18:34:22.850Z,99.90
2022-10-30T18:36:52.945Z,99.90
2022-10-30T18:39:22.438Z,99.90
2022-10-30T18:41:52.869Z,99.90
2022-10-30T18:44:41.022Z,99.90
2022-10-30T18:47:18.478Z,99.90
2022-10-30T18:52:41.927Z,99.90
2022-10-30T18:55:22.015Z,99.90
2022-10-30T18:57:51.495Z,99.90
2022-10-30T19:00:25.894Z,99.90
2022-10-30T19:02:55.474Z,99.90
2022-10-30T19:05:34.117Z,99.90
2022-10-30T19:08:05.260Z,99.90
2022-10-30T19:10:36.333Z,99.90
2022-10-30T19:13:13.133Z,99.90
2022-10-30T19:15:46.681Z,99.90
2022-10-30T19:18:17.336Z,99.90
2022-10-30T19:23:35.138Z,99.90
2022-10-30T19:26:04.116Z,99.90
2022-10-30T19:28:32.896Z,99.90
2022-10-30T19:31:03.738Z,99.90
2022-10-30T19:33:32.029Z,99.90
2022-10-30T19:36:02.409Z,99.90
2022-10-30T19:38:31.689Z,99.90
2022-10-30T19:41:00.916Z,99.90
2022-10-30T19:43:29.830Z,99.90
2022-10-30T19:45:59.475Z,99.90
2022-10-30T19:49:00.130Z,99.90
2022-10-30T19:51:21.137Z,99.90
2022-10-30T19:53:50.571Z,99.90
2022-10-30T19:56:21.718Z,99.90
2022-10-30T19:58:50.596Z,99.90
2022-10-30T20:01:19.335Z,99.90
2022-10-30T20:03:49.922Z,99.90
2022-10-30T20:06:19.793Z,99.90
2022-10-30T20:08:48.997Z,99.90
2022-10-30T20:11:17.369Z,99.90
2022-10-30T20:13:49.364Z,99.90
2022-10-30T20:16:20.940Z,99.90
2022-10-30T20:18:51.411Z,99.90
2022-10-30T20:21:21.714Z,99.90
2022-10-30T20:23:51.374Z,99.90
2022-10-30T20:26:26.124Z,99.90
2022-10-30T20:28:56.620Z,99.90
2022-10-30T20:31:28.128Z,99.90
2022-10-30T20:34:01.361Z,99.90
2022-10-30T20:36:31.883Z,99.90
2022-10-30T20:39:01.798Z,99.90
2022-10-30T20:41:32.717Z,99.90
2022-10-30T20:44:02.210Z,99.90
2022-10-30T20:46:32.268Z,99.90
2022-10-30T20:49:16.906Z,99.90
2022-10-30T20:51:47.475Z,99.90
2022-10-30T20:54:18.881Z,99.90
2022-10-30T20:56:48.280Z,99.90
2022-10-30T20:59:17.270Z,99.90
2022-10-30T21:01:46.945Z,99.90
2022-10-30T21:04:18.527Z,99.90
2022-10-30T21:06:47.877Z,99.90
2022-10-30T21:09:18.781Z,99.90
2022-10-30T21:11:48.518Z,99.90
2022-10-30T21:14:17.166Z,99.90
2022-10-30T21:16:45.625Z,99.90
2022-10-30T21:19:14.949Z,99.90
2022-10-30T21:21:46.048Z,99.90
2022-10-30T21:24:14.858Z,99.90
2022-10-30T21:26:44.122Z,99.90
2022-10-30T21:29:14.979Z,99.90
2022-10-30T21:31:43.272Z,99.90
2022-10-30T21:34:11.867Z,99.90
2022-10-30T21:36:41.242Z,99.90
2022-10-30T21:39:12.549Z,99.90
2022-10-30T21:41:41.310Z,99.90
2022-10-30T21:44:11.708Z,99.90
2022-10-30T21:46:40.614Z,99.90
2022-10-30T21:49:13.954Z,99.90
2022-10-30T21:51:42.887Z,99.90
2022-10-30T21:54:14.550Z,99.90
2022-10-30T21:56:42.844Z,99.90
2022-10-30T21:59:12.678Z,99.90
2022-10-30T22:01:44.637Z,99.90
2022-10-30T22:04:14.793Z,99.90
2022-10-30T22:06:46.035Z,99.90
2022-10-30T22:09:19.585Z,99.90
2022-10-30T22:11:48.690Z,99.90
2022-10-30T22:14:17.020Z,99.90
2022-10-30T22:16:45.962Z,99.90
2022-10-30T22:19:14.251Z,99.90
2022-10-30T22:21:42.792Z,99.90
2022-10-30T22:24:13.303Z,99.90
2022-10-30T22:26:43.780Z,99.90
2022-10-30T22:29:13.148Z,99.90
2022-10-30T22:31:41.565Z,99.90
2022-10-30T22:34:10.186Z,99.90
2022-10-30T22:36:38.467Z,99.90
2022-10-30T22:39:09.869Z,99.90
2022-10-30T22:41:42.593Z,99.90
2022-10-30T22:44:17.638Z,99.90
2022-10-30T22:46:48.375Z,99.90
2022-10-30T22:49:18.665Z,99.90
2022-10-30T22:51:47.787Z,99.90
2022-10-30T22:54:17.614Z,99.90
2022-10-30T22:56:46.643Z,99.90
2022-10-30T22:59:16.370Z,99.90
2022-10-30T23:01:45.421Z,99.90
2022-10-30T23:04:16.231Z,99.90
2022-10-30T23:06:46.030Z,99.90
2022-10-30T23:09:22.321Z,99.90
2022-10-30T23:12:02.704Z,99.90
2022-10-30T23:14:36.405Z,99.90
2022-10-30T23:17:06.217Z,99.90
2022-10-30T23:19:35.344Z,99.90
2022-10-30T23:22:04.520Z,99.90
2022-10-30T23:24:34.004Z,99.90
2022-10-30T23:27:02.585Z,99.90
2022-10-30T23:29:33.041Z,99.90
2022-10-30T23:32:01.837Z,99.90
2022-10-30T23:34:30.465Z,99.90
2022-10-30T23:37:01.709Z,99.90
2022-10-30T23:39:30.826Z,99.90
2022-10-30T23:42:00.350Z,99.90
2022-10-30T23:44:34.863Z,99.90
2022-10-30T23:47:06.270Z,99.90
2022-10-30T23:49:35.255Z,99.90
2022-10-30T23:52:04.262Z,99.90
2022-10-30T23:54:32.795Z,99.90
2022-10-30T23:57:01.789Z,99.90
2022-10-30T23:59:30.493Z,99.90
